createdAt,value
2023-02-04T00:01:25.524Z,96252.31
2023-02-04T00:03:51.998Z,96243.94
2023-02-04T00:06:18.565Z,96239.09
2023-02-04T00:08:45.235Z,96242.59
2023-02-04T00:11:11.776Z,96236.94
2023-02-04T00:13:38.419Z,96252.25
2023-02-04T00:16:05.332Z,96268.09
2023-02-04T00:18:31.813Z,96272.19
2023-02-04T00:20:58.410Z,96257.34
2023-02-04T00:23:25.001Z,96251.94
2023-02-04T00:25:51.595Z,96274.31
2023-02-04T00:28:18.192Z,96284.00
2023-02-04T00:30:44.864Z,96294.78
2023-02-04T00:33:11.364Z,96281.84
2023-02-04T00:35:37.952Z,96290.72
2023-02-04T00:38:05.501Z,96292.63
2023-02-04T00:40:33.137Z,96300.97
2023-02-04T00:42:59.797Z,96296.34
2023-02-04T00:45:26.491Z,96298.78
2023-02-04T00:47:53.157Z,96310.69
2023-02-04T00:50:19.811Z,96295.06
2023-02-04T00:52:46.455Z,96286.38
2023-02-04T00:55:13.964Z,96303.66
2023-02-04T00:57:40.501Z,96305.28
2023-02-04T01:00:09.035Z,96305.81
2023-02-04T01:02:35.662Z,96294.78
2023-02-04T01:05:03.058Z,96303.66
2023-02-04T01:07:29.573Z,96313.91
2023-02-04T01:09:56.200Z,96321.47
2023-02-04T01:12:22.723Z,96326.06
2023-02-04T01:14:49.608Z,96324.44
2023-02-04T01:17:16.076Z,96338.47
2023-02-04T01:19:42.599Z,96319.31
2023-02-04T01:22:09.114Z,96336.31
2023-02-04T01:24:35.660Z,96328.72
2023-02-04T01:27:25.603Z,96327.91
2023-02-04T01:29:52.112Z,96323.03
2023-02-04T01:32:18.605Z,96326.00
2023-02-04T01:34:45.680Z,96319.28
2023-02-04T01:37:12.228Z,96317.91
2023-02-04T01:39:38.894Z,96328.41
2023-02-04T01:42:05.706Z,96328.41
2023-02-04T01:44:32.367Z,96342.34
2023-02-04T01:46:59.560Z,96341.03
2023-02-04T01:49:26.771Z,96338.88
2023-02-04T01:51:53.383Z,96339.94
2023-02-04T01:54:20.125Z,96350.94
2023-02-04T01:56:47.913Z,96345.84
2023-02-04T01:59:16.761Z,96344.53
2023-02-04T02:01:46.517Z,96333.75
2023-02-04T02:04:16.367Z,96332.97
2023-02-04T02:06:48.566Z,96352.59
2023-02-04T02:09:15.220Z,96356.91
2023-02-04T02:11:43.322Z,96363.94
2023-02-04T02:14:09.995Z,96371.50
2023-02-04T02:16:36.917Z,96355.34
2023-02-04T02:19:05.660Z,96358.88
2023-02-04T02:22:20.842Z,96373.13
2023-02-04T02:24:47.432Z,96370.97
2023-02-04T02:27:13.971Z,96376.69
2023-02-04T02:29:42.351Z,96374.25
2023-02-04T02:32:12.372Z,96380.19
2023-02-04T02:34:39.580Z,96388.53
2023-02-04T02:37:07.113Z,96389.88
2023-02-04T02:39:33.705Z,96393.13
2023-02-04T02:42:00.454Z,96397.41
2023-02-04T02:44:29.025Z,96403.91
2023-02-04T02:46:57.472Z,96410.88
2023-02-04T02:49:24.246Z,96410.13
2023-02-04T02:51:50.884Z,96409.06
2023-02-04T02:54:29.702Z,96420.94
2023-02-04T02:56:59.551Z,96413.63
2023-02-04T02:59:27.394Z,96405.84
2023-02-04T03:01:58.328Z,96415.31
2023-02-04T03:04:30.011Z,96404.81
2023-02-04T03:06:57.029Z,96404.00
2023-02-04T03:09:27.176Z,96414.53
2023-02-04T03:11:54.318Z,96408.31
2023-02-04T03:14:23.463Z,96417.75
2023-02-04T03:16:50.765Z,96409.34
2023-02-04T03:19:17.287Z,96402.09
2023-02-04T03:21:45.545Z,96432.56
2023-02-04T03:24:12.402Z,96425.84
2023-02-04T03:26:38.996Z,96427.69
2023-02-04T03:29:10.192Z,96438.22
2023-02-04T03:31:37.664Z,96455.00
2023-02-04T03:34:04.962Z,96464.25
2023-02-04T03:36:31.445Z,96471.56
2023-02-04T03:38:58.754Z,96466.25
2023-02-04T03:41:25.360Z,96477.63
2023-02-04T03:43:52.026Z,96486.69
2023-02-04T03:46:18.537Z,96483.94
2023-02-04T03:48:45.171Z,96492.22
2023-02-04T03:51:11.636Z,96486.25
2023-02-04T03:53:38.096Z,96496.38
2023-02-04T03:56:05.163Z,96499.50
2023-02-04T03:58:31.632Z,96520.78
2023-02-04T04:00:58.645Z,96517.81
2023-02-04T04:03:25.241Z,96526.69
2023-02-04T04:05:51.698Z,96536.97
2023-02-04T04:08:18.273Z,96532.09
2023-02-04T04:10:44.865Z,96551.63
2023-02-04T04:13:11.716Z,96534.03
2023-02-04T04:15:38.317Z,96533.00
2023-02-04T04:18:04.986Z,96527.50
2023-02-04T04:20:31.829Z,96542.78
2023-02-04T04:22:58.500Z,96543.50
2023-02-04T04:25:25.425Z,96540.72
2023-02-04T04:27:51.939Z,96535.88
2023-02-04T04:30:18.715Z,96547.41
2023-02-04T04:32:45.245Z,96537.19
2023-02-04T04:35:12.242Z,96543.13
2023-02-04T04:37:38.757Z,96543.31
2023-02-04T04:40:05.727Z,96532.56
2023-02-04T04:42:32.278Z,96543.84
2023-02-04T04:44:58.887Z,96540.59
2023-02-04T04:47:25.415Z,96545.38
2023-02-04T04:49:51.962Z,96552.91
2023-02-04T04:52:18.504Z,96552.59
2023-02-04T04:54:45.081Z,96556.03
2023-02-04T04:57:11.651Z,96564.88
2023-02-04T04:59:38.276Z,96558.03
2023-02-04T05:02:04.732Z,96562.88
2023-02-04T05:04:31.445Z,96572.50
2023-02-04T05:06:57.961Z,96588.06
2023-02-04T05:09:24.565Z,96579.69
2023-02-04T05:11:51.160Z,96592.88
2023-02-04T05:14:17.773Z,96587.50
2023-02-04T05:16:44.250Z,96593.44
2023-02-04T05:19:10.858Z,96596.94
2023-02-04T05:21:37.453Z,96601.81
2023-02-04T05:24:04.211Z,96604.25
2023-02-04T05:26:31.454Z,96612.91
2023-02-04T05:28:59.084Z,96616.41
2023-02-04T05:31:25.838Z,96616.72
2023-02-04T05:33:52.337Z,96623.50
2023-02-04T05:36:18.926Z,96618.09
2023-02-04T05:38:45.465Z,96627.78
2023-02-04T05:41:12.684Z,96642.63
2023-02-04T05:43:39.225Z,96633.16
2023-02-04T05:46:06.014Z,96641.22
2023-02-04T05:48:32.587Z,96648.00
2023-02-04T05:50:59.066Z,96652.88
2023-02-04T05:53:26.285Z,96653.44
2023-02-04T05:55:53.160Z,96658.81
2023-02-04T05:58:19.838Z,96665.28
2023-02-04T06:00:46.307Z,96662.91
2023-02-04T06:03:12.890Z,96673.66
2023-02-04T06:05:39.480Z,96681.97
2023-02-04T06:08:06.180Z,96692.50
2023-02-04T06:10:33.108Z,96697.63
2023-02-04T06:12:59.770Z,96712.63
2023-02-04T06:15:26.228Z,96708.94
2023-02-04T06:17:52.708Z,96707.34
2023-02-04T06:20:19.548Z,96715.41
2023-02-04T06:22:46.028Z,96719.22
2023-02-04T06:25:12.488Z,96716.53
2023-02-04T06:27:39.087Z,96720.84
2023-02-04T06:30:06.012Z,96723.78
2023-02-04T06:32:32.600Z,96719.22
2023-02-04T06:34:59.221Z,96722.97
2023-02-04T06:37:25.787Z,96726.22
2023-02-04T06:39:52.450Z,96723.06
2023-02-04T06:42:19.052Z,96726.78
2023-02-04T06:44:45.691Z,96718.72
2023-02-04T06:47:12.263Z,96730.13
2023-02-04T06:49:38.723Z,96732.19
2023-02-04T06:52:05.452Z,96725.00
2023-02-04T06:54:31.993Z,96728.81
2023-02-04T06:56:58.444Z,96732.06
2023-02-04T06:59:25.022Z,96732.38
2023-02-04T07:01:51.598Z,96731.31
2023-02-04T07:04:18.140Z,96750.50
2023-02-04T07:06:44.724Z,96742.16
2023-02-04T07:09:11.397Z,96744.59
2023-02-04T07:11:37.860Z,96759.44
2023-02-04T07:14:04.452Z,96763.50
2023-02-04T07:16:31.053Z,96762.47
2023-02-04T07:18:57.625Z,96766.28
2023-02-04T07:21:24.176Z,96775.19
2023-02-04T07:23:50.657Z,96774.13
2023-02-04T07:26:17.140Z,96786.03
2023-02-04T07:28:43.772Z,96789.84
2023-02-04T07:31:10.743Z,96787.41
2023-02-04T07:33:37.339Z,96787.97
2023-02-04T07:36:04.437Z,96797.66
2023-02-04T07:38:30.956Z,96802.25
2023-02-04T07:40:57.446Z,96797.41
2023-02-04T07:43:24.383Z,96806.66
2023-02-04T07:45:50.948Z,96801.25
2023-02-04T07:48:17.427Z,96803.94
2023-02-04T07:50:43.904Z,96801.50
2023-02-04T07:53:10.473Z,96808.00
2023-02-04T07:55:36.970Z,96816.91
2023-02-04T07:58:03.966Z,96812.34
2023-02-04T08:00:30.769Z,96822.06
2023-02-04T08:02:57.456Z,96813.72
2023-02-04T08:05:24.056Z,96825.81
2023-02-04T08:07:50.634Z,96826.69
2023-02-04T08:10:17.452Z,96833.69
2023-02-04T08:12:43.975Z,96838.28
2023-02-04T08:15:10.514Z,96836.63
2023-02-04T08:17:36.977Z,96842.34
2023-02-04T08:20:04.022Z,96840.22
2023-02-04T08:22:30.591Z,96839.09
2023-02-04T08:24:57.113Z,96837.53
2023-02-04T08:27:23.687Z,96846.97
2023-02-04T08:29:50.191Z,96850.81
2023-02-04T08:32:16.704Z,96857.25
2023-02-04T08:34:43.188Z,96859.19
2023-02-04T08:37:09.724Z,96860.84
2023-02-04T08:39:36.424Z,96865.97
2023-02-04T08:42:02.980Z,96866.53
2023-02-04T08:44:29.748Z,96858.66
2023-02-04T08:46:56.254Z,96871.38
2023-02-04T08:49:22.876Z,96878.06
2023-02-04T08:51:49.376Z,96881.34
2023-02-04T08:54:15.860Z,96875.38
2023-02-04T08:56:42.366Z,96884.84
2023-02-04T08:59:08.942Z,96881.66
2023-02-04T09:01:35.469Z,96883.00
2023-02-04T09:04:01.984Z,96878.22
2023-02-04T09:06:28.472Z,96878.50
2023-02-04T09:08:54.978Z,96880.16
2023-02-04T09:11:21.495Z,96875.06
2023-02-04T09:13:48.149Z,96889.09
2023-02-04T09:16:14.677Z,96885.91
2023-02-04T09:18:41.250Z,96879.47
2023-02-04T09:21:07.831Z,96891.34
2023-02-04T09:23:34.397Z,96896.69
2023-02-04T09:26:00.858Z,96894.06
2023-02-04T09:28:27.448Z,96900.03
2023-02-04T09:30:54.019Z,96899.78
2023-02-04T09:33:20.561Z,96910.88
2023-02-04T09:35:47.033Z,96912.06
2023-02-04T09:38:13.712Z,96905.91
2023-02-04T09:40:49.848Z,96907.03
2023-02-04T09:43:21.769Z,96908.97
2023-02-04T09:45:48.900Z,96914.34
2023-02-04T09:48:15.496Z,96920.31
2023-02-04T09:50:42.260Z,96931.09
2023-02-04T09:53:13.878Z,96948.34
2023-02-04T09:55:44.216Z,96951.41
2023-02-04T09:58:22.261Z,96960.00
2023-02-04T10:01:08.989Z,96960.69
2023-02-04T10:03:35.659Z,96966.78
2023-02-04T10:06:02.397Z,96968.34
2023-02-04T10:08:31.119Z,96981.22
2023-02-04T10:10:58.211Z,96978.09
2023-02-04T10:13:32.885Z,96977.31
2023-02-04T10:16:00.188Z,96979.25
2023-02-04T10:18:30.232Z,96974.72
2023-02-04T10:21:08.869Z,96978.69
2023-02-04T10:23:35.426Z,96987.75
2023-02-04T10:26:03.384Z,96984.28
2023-02-04T10:28:36.821Z,96982.38
2023-02-04T10:31:03.841Z,96985.19
2023-02-04T10:33:30.500Z,96984.34
2023-02-04T10:35:57.210Z,96982.25
2023-02-04T10:38:24.212Z,96980.69
2023-02-04T10:41:05.274Z,96980.91
2023-02-04T10:43:32.686Z,96973.91
2023-02-04T10:46:02.394Z,96977.59
2023-02-04T10:48:29.585Z,96981.59
2023-02-04T10:50:57.044Z,96979.31
2023-02-04T10:53:25.258Z,96974.72
2023-02-04T10:55:51.830Z,96970.00
2023-02-04T10:58:28.796Z,96968.69
2023-02-04T11:00:55.633Z,96973.13
2023-02-04T11:03:25.007Z,96966.81
2023-02-04T11:05:52.898Z,96979.00
2023-02-04T11:08:25.827Z,96971.41
2023-02-04T11:10:58.961Z,96973.19
2023-02-04T11:13:38.815Z,96971.31
2023-02-04T11:16:17.738Z,96974.59
2023-02-04T11:18:48.853Z,96983.06
2023-02-04T11:21:26.120Z,96985.66
2023-02-04T11:24:13.809Z,96984.91
2023-02-04T11:26:44.384Z,96984.78
2023-02-04T11:29:10.993Z,96982.09
2023-02-04T11:31:48.628Z,96971.94
2023-02-04T11:34:15.115Z,96977.16
2023-02-04T11:36:56.686Z,96974.78
2023-02-04T11:39:27.002Z,96984.44
2023-02-04T11:41:53.671Z,96981.94
2023-02-04T11:44:20.333Z,96983.41
2023-02-04T11:46:52.499Z,96980.78
2023-02-04T11:49:20.668Z,96979.63
2023-02-04T11:51:47.176Z,96979.94
2023-02-04T11:54:15.967Z,96980.91
2023-02-04T11:56:42.916Z,96988.25
2023-02-04T11:59:12.344Z,96976.47
2023-02-04T12:01:39.361Z,96976.31
2023-02-04T12:04:08.286Z,96967.78
2023-02-04T12:06:37.381Z,96965.16
2023-02-04T12:09:25.607Z,96963.34
2023-02-04T12:11:53.018Z,96951.56
2023-02-04T12:14:20.037Z,96957.06
2023-02-04T12:16:51.365Z,96959.19
2023-02-04T12:19:18.073Z,96959.19
2023-02-04T12:21:45.081Z,96957.00
2023-02-04T12:24:11.655Z,96959.75
2023-02-04T12:26:38.180Z,96954.81
2023-02-04T12:29:04.728Z,96959.94
2023-02-04T12:31:32.231Z,96966.59
2023-02-04T12:33:59.562Z,96966.34
2023-02-04T12:36:26.892Z,96969.28
2023-02-04T12:38:53.999Z,96962.66
2023-02-04T12:41:20.473Z,96970.72
2023-02-04T12:43:47.418Z,96959.69
2023-02-04T12:46:13.963Z,96959.91
2023-02-04T12:48:40.594Z,96960.41
2023-02-04T12:51:07.742Z,96953.06
2023-02-04T12:53:34.388Z,96956.75
2023-02-04T12:56:00.860Z,96957.75
2023-02-04T12:58:27.363Z,96954.25
2023-02-04T13:00:54.005Z,96952.31
2023-02-04T13:03:20.528Z,96953.38
2023-02-04T13:05:47.005Z,96959.50
2023-02-04T13:08:13.561Z,96955.50
2023-02-04T13:10:40.053Z,96957.41
2023-02-04T13:13:06.645Z,96964.97
2023-02-04T13:15:33.478Z,96956.31
2023-02-04T13:18:00.127Z,96959.84
2023-02-04T13:20:26.669Z,96961.44
2023-02-04T13:22:53.215Z,96964.72
2023-02-04T13:25:19.772Z,96963.94
2023-02-04T13:27:46.300Z,96974.56
2023-02-04T13:30:14.705Z,96981.28
2023-02-04T13:32:41.435Z,96985.16
2023-02-04T13:35:08.182Z,96987.81
2023-02-04T13:37:34.867Z,96998.34
2023-02-04T13:40:01.353Z,96991.81
2023-02-04T13:42:27.894Z,96996.66
2023-02-04T13:44:54.380Z,96991.50
2023-02-04T13:47:21.162Z,96995.00
2023-02-04T13:49:47.941Z,96988.22
2023-02-04T13:52:14.505Z,96996.00
2023-02-04T13:54:41.039Z,96997.91
2023-02-04T13:57:07.676Z,97012.38
2023-02-04T13:59:34.175Z,97016.13
2023-02-04T14:02:00.741Z,97025.84
2023-02-04T14:04:27.437Z,97024.44
2023-02-04T14:06:54.611Z,97012.88
2023-02-04T14:09:21.266Z,97028.13
2023-02-04T14:11:47.841Z,97027.59
2023-02-04T14:14:14.435Z,97025.44
2023-02-04T14:16:41.218Z,97025.19
2023-02-04T14:19:07.782Z,97028.41
2023-02-04T14:21:34.315Z,97039.19
2023-02-04T14:24:00.943Z,97034.31
2023-02-04T14:26:27.463Z,97041.00
2023-02-04T14:28:54.029Z,97035.34
2023-02-04T14:31:20.900Z,97034.31
2023-02-04T14:33:49.920Z,97035.09
2023-02-04T14:36:16.908Z,97038.06
2023-02-04T14:38:43.408Z,97035.91
2023-02-04T14:41:09.998Z,97035.59
2023-02-04T14:43:36.499Z,97040.69
2023-02-04T14:46:06.915Z,97044.19
2023-02-04T14:48:33.675Z,97040.44
2023-02-04T14:51:00.282Z,97047.19
2023-02-04T14:53:26.757Z,97043.94
2023-02-04T14:55:53.255Z,97049.31
2023-02-04T14:58:19.808Z,97049.81
2023-02-04T15:00:46.552Z,97044.44
2023-02-04T15:03:13.244Z,97049.81
2023-02-04T15:05:39.821Z,97047.13
2023-02-04T15:08:06.385Z,97053.00
2023-02-04T15:10:33.125Z,97060.59
2023-02-04T15:13:00.060Z,97048.91
2023-02-04T15:15:26.633Z,97061.31
2023-02-04T15:17:53.115Z,97061.31
2023-02-04T15:20:19.797Z,97056.19
2023-02-04T15:22:46.374Z,97059.97
2023-02-04T15:25:13.260Z,97066.47
2023-02-04T15:27:39.876Z,97071.56
2023-02-04T15:30:06.671Z,97070.41
2023-02-04T15:32:33.210Z,97073.25
2023-02-04T15:34:59.761Z,97080.19
2023-02-04T15:37:26.303Z,97078.00
2023-02-04T15:39:53.000Z,97077.41
2023-02-04T15:42:19.591Z,97082.72
2023-02-04T15:44:46.094Z,97082.66
2023-02-04T15:47:12.616Z,97085.59
2023-02-04T15:49:39.122Z,97090.66
2023-02-04T15:52:07.145Z,97092.19
2023-02-04T15:54:37.526Z,97102.38
2023-02-04T15:57:04.112Z,97093.47
2023-02-04T15:59:30.762Z,97107.41
2023-02-04T16:01:57.772Z,97104.72
2023-02-04T16:04:24.609Z,97097.63
2023-02-04T16:06:58.338Z,97098.13
2023-02-04T16:09:25.799Z,97102.34
2023-02-04T16:11:52.333Z,97103.16
2023-02-04T16:14:18.948Z,97101.53
2023-02-04T16:16:45.523Z,97104.47
2023-02-04T16:19:12.146Z,97106.56
2023-02-04T16:21:38.686Z,97103.31
2023-02-04T16:24:05.734Z,97104.56
2023-02-04T16:26:32.391Z,97114.19
2023-02-04T16:28:58.985Z,97117.13
2023-02-04T16:31:25.572Z,97118.41
2023-02-04T16:33:52.269Z,97117.84
2023-02-04T16:36:19.079Z,97123.69
2023-02-04T16:38:45.698Z,97120.69
2023-02-04T16:41:12.180Z,97131.09
2023-02-04T16:43:38.747Z,97127.72
2023-02-04T16:46:05.489Z,97140.00
2023-02-04T16:48:32.172Z,97147.16
2023-02-04T16:50:58.683Z,97145.41
2023-02-04T16:53:25.334Z,97148.00
2023-02-04T16:55:51.924Z,97154.09
2023-02-04T16:58:18.648Z,97158.31
2023-02-04T17:00:45.485Z,97149.88
2023-02-04T17:03:12.566Z,97155.97
2023-02-04T17:05:40.212Z,97155.88
2023-02-04T17:08:07.430Z,97163.59
2023-02-04T17:10:34.173Z,97163.59
2023-02-04T17:13:00.672Z,97164.06
2023-02-04T17:15:27.233Z,97169.66
2023-02-04T17:17:53.767Z,97168.81
2023-02-04T17:20:20.404Z,97171.75
2023-02-04T17:22:46.937Z,97168.50
2023-02-04T17:25:13.472Z,97177.59
2023-02-04T17:27:40.075Z,97182.41
2023-02-04T17:30:07.132Z,97184.28
2023-02-04T17:32:33.700Z,97183.47
2023-02-04T17:35:00.423Z,97187.19
2023-02-04T17:37:27.195Z,97188.00
2023-02-04T17:39:54.456Z,97190.34
2023-02-04T17:42:20.972Z,97186.25
2023-02-04T17:44:47.470Z,97176.56
2023-02-04T17:47:13.964Z,97177.84
2023-02-04T17:49:40.601Z,97173.72
2023-02-04T17:52:07.174Z,97179.84
2023-02-04T17:54:34.195Z,97180.06
2023-02-04T17:57:16.491Z,97192.31
2023-02-04T17:59:42.999Z,97191.72
2023-02-04T18:02:27.165Z,97194.03
2023-02-04T18:04:55.230Z,97202.81
2023-02-04T18:07:22.794Z,97200.81
2023-02-04T18:09:49.293Z,97207.13
2023-02-04T18:12:17.298Z,97205.69
2023-02-04T18:14:44.136Z,97198.31
2023-02-04T18:17:13.824Z,97208.94
2023-02-04T18:19:41.243Z,97203.44
2023-02-04T18:22:15.692Z,97198.97
2023-02-04T18:24:44.811Z,97206.69
2023-02-04T18:27:15.989Z,97202.81
2023-02-04T18:29:45.084Z,97206.16
2023-02-04T18:32:23.332Z,97200.66
2023-02-04T18:34:54.886Z,97201.13
2023-02-04T18:37:31.953Z,97199.13
2023-02-04T18:40:10.617Z,97187.41
2023-02-04T18:42:39.201Z,97188.09
2023-02-04T18:45:26.637Z,97192.97
2023-02-04T18:48:21.772Z,97200.50
2023-02-04T18:50:50.448Z,97206.53
2023-02-04T18:53:27.655Z,97207.66
2023-02-04T18:55:57.017Z,97198.84
2023-02-04T18:58:40.577Z,97216.06
2023-02-04T19:01:19.959Z,97211.63
2023-02-04T19:03:52.037Z,97207.13
2023-02-04T19:06:40.199Z,97208.84
2023-02-04T19:09:13.322Z,97202.94
2023-02-04T19:11:56.786Z,97207.53
2023-02-04T19:14:23.230Z,97209.03
2023-02-04T19:16:52.110Z,97208.88
2023-02-04T19:19:34.139Z,97208.13
2023-02-04T19:22:01.687Z,97208.78
2023-02-04T19:24:28.418Z,97217.47
2023-02-04T19:26:59.040Z,97209.28
2023-02-04T19:29:25.508Z,97216.09
2023-02-04T19:31:55.671Z,97213.25
2023-02-04T19:34:28.657Z,97206.69
2023-02-04T19:36:55.609Z,97217.03
2023-02-04T19:39:29.777Z,97217.66
2023-02-04T19:41:57.104Z,97218.09
2023-02-04T19:44:33.308Z,97218.75
2023-02-04T19:47:19.569Z,97217.56
2023-02-04T19:49:46.152Z,97217.16
2023-02-04T19:52:28.991Z,97215.16
2023-02-04T19:55:02.304Z,97216.41
2023-02-04T19:57:32.369Z,97216.00
2023-02-04T19:59:59.029Z,97218.91
2023-02-04T20:02:32.846Z,97218.72
2023-02-04T20:05:00.109Z,97220.78
2023-02-04T20:07:29.281Z,97216.91
2023-02-04T20:10:07.988Z,97215.69
2023-02-04T20:12:34.540Z,97219.41
2023-02-04T20:15:13.962Z,97217.56
2023-02-04T20:17:44.908Z,97227.69
2023-02-04T20:20:18.937Z,97224.81
2023-02-04T20:22:51.129Z,97232.25
2023-02-04T20:25:20.633Z,97224.03
2023-02-04T20:27:51.998Z,97220.75
2023-02-04T20:30:25.945Z,97218.72
2023-02-04T20:32:55.925Z,97226.13
2023-02-04T20:35:22.425Z,97233.78
2023-02-04T20:37:54.991Z,97240.56
2023-02-04T20:40:35.934Z,97238.31
2023-02-04T20:43:34.380Z,97238.94
2023-02-04T20:46:02.811Z,97243.50
2023-02-04T20:48:37.486Z,97249.25
2023-02-04T20:51:05.343Z,97252.94
2023-02-04T20:53:38.702Z,97256.25
2023-02-04T20:56:20.350Z,97257.50
2023-02-04T20:58:46.909Z,97254.00
2023-02-04T21:01:33.221Z,97255.25
2023-02-04T21:04:31.860Z,97262.69
2023-02-04T21:07:01.400Z,97257.31
2023-02-04T21:09:29.808Z,97261.63
2023-02-04T21:11:57.891Z,97261.63
2023-02-04T21:14:24.811Z,97266.19
2023-02-04T21:16:52.270Z,97270.06
2023-02-04T21:19:18.851Z,97268.44
2023-02-04T21:21:45.308Z,97271.13
2023-02-04T21:24:12.211Z,97280.16
2023-02-04T21:26:38.794Z,97264.31
2023-02-04T21:29:05.804Z,97269.47
2023-02-04T21:31:32.988Z,97272.13
2023-02-04T21:33:59.833Z,97272.75
2023-02-04T21:36:26.480Z,97270.69
2023-02-04T21:38:53.677Z,97270.25
2023-02-04T21:41:20.724Z,97273.78
2023-02-04T21:43:48.376Z,97274.16
2023-02-04T21:46:15.565Z,97274.75
2023-02-04T21:48:42.301Z,97278.88
2023-02-04T21:51:08.854Z,97266.75
2023-02-04T21:53:35.401Z,97271.44
2023-02-04T21:56:01.916Z,97270.41
2023-02-04T21:58:28.404Z,97270.22
2023-02-04T22:00:55.057Z,97276.16
2023-02-04T22:03:21.644Z,97279.69
2023-02-04T22:05:48.282Z,97281.28
2023-02-04T22:08:14.846Z,97276.56
2023-02-04T22:10:41.563Z,97281.72
2023-02-04T22:13:08.051Z,97278.00
2023-02-04T22:15:34.912Z,97280.47
2023-02-04T22:18:01.908Z,97286.44
2023-02-04T22:20:28.472Z,97289.13
2023-02-04T22:22:55.332Z,97289.94
2023-02-04T22:25:22.165Z,97292.38
2023-02-04T22:27:49.002Z,97297.75
2023-02-04T22:30:16.855Z,97299.38
2023-02-04T22:32:43.320Z,97302.03
2023-02-04T22:35:10.852Z,97302.03
2023-02-04T22:37:41.492Z,97301.84
2023-02-04T22:40:09.788Z,97291.97
2023-02-04T22:42:36.365Z,97297.91
2023-02-04T22:45:02.960Z,97291.56
2023-02-04T22:47:30.230Z,97296.06
2023-02-04T22:49:56.872Z,97299.56
2023-02-04T22:52:23.381Z,97306.56
2023-02-04T22:54:50.610Z,97292.38
2023-02-04T22:57:17.279Z,97292.38
2023-02-04T22:59:43.826Z,97297.72
2023-02-04T23:02:10.319Z,97285.16
2023-02-04T23:04:36.853Z,97286.19
2023-02-04T23:07:03.482Z,97290.72
2023-02-04T23:09:31.481Z,97282.06
2023-02-04T23:11:58.392Z,97274.28
2023-02-04T23:14:25.214Z,97281.69
2023-02-04T23:16:51.907Z,97276.34
2023-02-04T23:19:18.617Z,97290.13
2023-02-04T23:21:45.156Z,97284.19
2023-02-04T23:24:11.726Z,97281.72
2023-02-04T23:26:38.268Z,97283.75
2023-02-04T23:29:04.789Z,97282.94
2023-02-04T23:31:31.309Z,97282.13
2023-02-04T23:33:57.957Z,97282.13
2023-02-04T23:36:24.473Z,97274.94
2023-02-04T23:38:51.248Z,97277.59
2023-02-04T23:41:17.721Z,97280.28
2023-02-04T23:43:44.299Z,97283.97
2023-02-04T23:46:10.874Z,97276.78
2023-02-04T23:48:37.434Z,97284.59
2023-02-04T23:51:03.977Z,97280.28
2023-02-04T23:53:30.516Z,97287.50
2023-02-04T23:55:57.123Z,97282.34
2023-02-04T23:58:23.690Z,97295.72
